Time;durP1;ratioP1;P1;durP2;ratioP2;P2;SDS_P1;SDS_P2;PMS_P1;PMS_P2;Temp;Humidity;BMP_temperature;BMP_pressure;BME280_temperature;BME280_humidity;BME280_pressure;Samples;Min_cycle;Max_cycle;Signal;HPM_P1;HPM_P2
2020/12/17 00:00:10;;;;;;;10.65;3.30;;;7.10;99.90;;;;;;5072746;28;20551;-81
2020/12/17 00:02:36;;;;;;;7.63;2.60;;;7.10;99.90;;;;;;5090094;28;20031;-81
2020/12/17 00:05:02;;;;;;;11.25;2.80;;;7.00;99.90;;;;;;5073281;28;20032;-83
2020/12/17 00:07:28;;;;;;;14.52;3.65;;;7.00;99.90;;;;;;5091886;28;20028;-82
2020/12/17 00:09:53;;;;;;;11.20;2.55;;;7.00;99.90;;;;;;5074312;28;20413;-82
2020/12/17 00:12:19;;;;;;;8.35;2.15;;;7.00;99.90;;;;;;5073296;28;20028;-84
2020/12/17 00:14:45;;;;;;;10.98;2.60;;;7.00;99.90;;;;;;5071435;28;20024;-84
2020/12/17 00:17:10;;;;;;;7.53;2.92;;;7.00;99.90;;;;;;5071825;28;20028;-83
2020/12/17 00:19:36;;;;;;;15.80;2.33;;;7.00;99.90;;;;;;5071522;28;20514;-82
2020/12/17 00:22:01;;;;;;;12.68;2.65;;;7.00;99.90;;;;;;5071364;28;20433;-80
2020/12/17 00:24:27;;;;;;;10.20;2.55;;;7.00;99.90;;;;;;5072449;28;20036;-81
2020/12/17 00:26:53;;;;;;;15.13;2.75;;;6.90;99.90;;;;;;5073511;28;20036;-82
2020/12/17 00:29:18;;;;;;;9.93;2.45;;;6.90;99.90;;;;;;5072002;28;20416;-80
2020/12/17 00:31:44;;;;;;;7.95;2.38;;;6.90;99.90;;;;;;5073203;28;20161;-80
2020/12/17 00:34:10;;;;;;;13.30;3.97;;;6.90;99.90;;;;;;5089377;28;20509;-81
2020/12/17 00:36:35;;;;;;;11.70;2.80;;;6.90;99.90;;;;;;5089643;28;20038;-82
2020/12/17 00:39:01;;;;;;;10.55;3.00;;;6.90;99.90;;;;;;5088950;28;20031;-82
2020/12/17 00:41:27;;;;;;;13.80;3.95;;;6.90;99.90;;;;;;5072980;28;20047;-82
2020/12/17 00:43:52;;;;;;;8.30;3.03;;;6.90;99.90;;;;;;5089811;28;20493;-84
2020/12/17 00:46:18;;;;;;;13.50;3.05;;;6.80;99.90;;;;;;5088158;28;20031;-82
2020/12/17 00:48:44;;;;;;;15.90;3.45;;;6.80;99.90;;;;;;5088294;28;20024;-82
2020/12/17 00:51:10;;;;;;;12.43;3.50;;;6.80;99.90;;;;;;5071896;28;20028;-80
2020/12/17 00:53:36;;;;;;;13.25;2.58;;;6.80;99.90;;;;;;5072104;28;20032;-83
2020/12/17 00:56:01;;;;;;;11.73;3.33;;;6.80;99.90;;;;;;5073916;28;20020;-80
2020/12/17 00:58:27;;;;;;;19.02;4.05;;;6.70;99.90;;;;;;5089207;28;20390;-83
2020/12/17 01:00:53;;;;;;;14.13;2.92;;;6.70;99.90;;;;;;5088476;28;20024;-83
2020/12/17 01:03:19;;;;;;;12.98;4.15;;;6.70;99.90;;;;;;5071718;28;20081;-83
2020/12/17 01:05:45;;;;;;;11.55;3.78;;;6.70;99.90;;;;;;5090212;28;20395;-82
2020/12/17 01:08:11;;;;;;;10.25;3.25;;;6.70;99.90;;;;;;5088298;28;20447;-80
2020/12/17 01:10:37;;;;;;;12.10;3.42;;;6.70;99.90;;;;;;5089297;28;20024;-82
2020/12/17 01:13:03;;;;;;;11.93;3.25;;;6.70;99.90;;;;;;5090030;28;20027;-81
2020/12/17 01:15:28;;;;;;;6.30;2.70;;;6.70;99.90;;;;;;5090595;28;20074;-81
2020/12/17 01:17:54;;;;;;;12.50;2.47;;;6.70;99.90;;;;;;5072456;28;20363;-81
2020/12/17 01:20:20;;;;;;;6.35;2.60;;;6.70;99.90;;;;;;5088642;28;20138;-82
2020/12/17 01:22:45;;;;;;;7.18;2.30;;;6.80;99.90;;;;;;5072475;28;20478;-81
2020/12/17 01:25:11;;;;;;;7.53;3.15;;;6.80;99.90;;;;;;5072591;28;20030;-81
2020/12/17 01:27:37;;;;;;;7.50;2.67;;;6.80;99.90;;;;;;5090191;28;20030;-81
2020/12/17 01:30:03;;;;;;;9.48;2.80;;;6.80;99.90;;;;;;5072002;28;20395;-83
2020/12/17 01:32:29;;;;;;;8.98;2.70;;;6.80;99.90;;;;;;5072220;28;20028;-81
2020/12/17 01:34:55;;;;;;;16.05;4.38;;;6.80;99.90;;;;;;5072495;28;20070;-83
2020/12/17 01:37:20;;;;;;;12.73;3.47;;;6.80;99.90;;;;;;5089537;28;20032;-82
2020/12/17 01:39:46;;;;;;;8.43;2.85;;;6.90;99.90;;;;;;5072292;28;20028;-82
2020/12/17 01:42:12;;;;;;;12.82;3.05;;;6.90;99.90;;;;;;5090021;28;20484;-83
2020/12/17 01:44:39;;;;;;;16.83;3.90;;;6.80;99.90;;;;;;5088822;28;20039;-82
2020/12/17 01:47:05;;;;;;;9.27;3.58;;;6.80;99.90;;;;;;5071731;28;20024;-82
2020/12/17 01:49:31;;;;;;;8.68;3.60;;;6.80;99.90;;;;;;5071131;28;20352;-83
2020/12/17 01:51:56;;;;;;;11.02;4.22;;;6.80;99.90;;;;;;5071442;28;20252;-81
2020/12/17 01:54:22;;;;;;;11.10;3.97;;;6.80;99.90;;;;;;5088496;28;20035;-84
2020/12/17 01:56:53;;;;;;;10.40;4.00;;;6.80;99.90;;;;;;5071292;28;20074;-82
2020/12/17 01:59:22;;;;;;;10.45;3.55;;;6.80;99.90;;;;;;5092105;28;20024;-81
2020/12/17 02:01:50;;;;;;;14.68;4.85;;;6.80;99.90;;;;;;5092918;28;20466;-81
2020/12/17 02:04:17;;;;;;;10.43;4.18;;;6.80;99.90;;;;;;5074960;28;20483;-81
2020/12/17 02:06:44;;;;;;;10.32;4.00;;;6.80;99.90;;;;;;5093437;28;20031;-83
2020/12/17 02:09:09;;;;;;;15.27;4.20;;;6.80;99.90;;;;;;5093390;28;20039;-81
2020/12/17 02:11:35;;;;;;;10.43;3.42;;;6.80;99.90;;;;;;5091753;28;20111;-82
2020/12/17 02:14:01;;;;;;;14.20;3.35;;;6.80;99.90;;;;;;5075242;28;20024;-81
2020/12/17 02:16:28;;;;;;;15.65;3.50;;;6.80;99.90;;;;;;5074425;28;20463;-81
2020/12/17 02:18:54;;;;;;;13.65;4.18;;;6.80;99.90;;;;;;5091508;28;20043;-84
2020/12/17 02:21:20;;;;;;;14.05;3.17;;;6.80;99.90;;;;;;5091650;28;20020;-81
2020/12/17 02:23:46;;;;;;;12.05;3.60;;;6.70;99.90;;;;;;5091988;28;20383;-83
2020/12/17 02:26:12;;;;;;;9.35;3.35;;;6.70;99.90;;;;;;5092794;28;20020;-83
2020/12/17 02:28:38;;;;;;;13.27;4.30;;;6.70;99.90;;;;;;5091212;28;20077;-81
2020/12/17 02:31:04;;;;;;;10.68;3.70;;;6.70;99.90;;;;;;5074735;28;20057;-82
2020/12/17 02:33:30;;;;;;;6.97;3.20;;;6.70;99.90;;;;;;5074610;28;20772;-81
2020/12/17 02:35:56;;;;;;;12.15;4.03;;;6.70;99.90;;;;;;5091634;28;20020;-81
2020/12/17 02:38:23;;;;;;;13.38;3.58;;;6.70;99.90;;;;;;5091261;28;20044;-81
2020/12/17 02:40:52;;;;;;;10.45;3.53;;;6.70;99.90;;;;;;5092721;28;20024;-82
2020/12/17 02:43:18;;;;;;;7.37;2.73;;;6.70;99.90;;;;;;5075471;28;20511;-82
2020/12/17 02:45:48;;;;;;;9.95;3.30;;;6.70;99.90;;;;;;5073790;28;20290;-82
2020/12/17 02:48:14;;;;;;;11.05;3.22;;;6.70;99.90;;;;;;5092100;28;20054;-82
2020/12/17 02:50:41;;;;;;;9.77;2.80;;;6.70;99.90;;;;;;5091934;28;20020;-83
2020/12/17 02:53:08;;;;;;;17.30;4.15;;;6.70;99.90;;;;;;5074276;28;20032;-82
2020/12/17 02:55:35;;;;;;;13.18;3.05;;;6.70;99.90;;;;;;5091526;28;20021;-85
2020/12/17 02:58:00;;;;;;;8.88;3.10;;;6.70;99.90;;;;;;5090277;28;20024;-84
2020/12/17 03:00:26;;;;;;;8.05;2.95;;;6.70;99.90;;;;;;5090627;28;20530;-82
2020/12/17 03:02:52;;;;;;;9.73;2.75;;;6.70;99.90;;;;;;5091993;28;20323;-82
2020/12/17 03:05:18;;;;;;;9.55;2.75;;;6.70;99.90;;;;;;5073399;28;20074;-80
2020/12/17 03:07:44;;;;;;;7.75;2.80;;;6.70;99.90;;;;;;5091339;28;20119;-83
2020/12/17 03:10:13;;;;;;;8.85;3.10;;;6.60;99.90;;;;;;5089237;28;20182;-80
2020/12/17 03:12:43;;;;;;;12.85;3.03;;;6.60;99.90;;;;;;5091506;28;20033;-82
2020/12/17 03:15:10;;;;;;;11.48;3.05;;;6.60;99.90;;;;;;5090554;28;20016;-83
2020/12/17 03:17:37;;;;;;;16.38;3.08;;;6.60;99.90;;;;;;5073274;28;20020;-81
2020/12/17 03:20:08;;;;;;;13.00;3.05;;;6.60;99.90;;;;;;5091404;28;20047;-83
2020/12/17 03:22:34;;;;;;;7.65;2.50;;;6.60;99.90;;;;;;5091300;28;20065;-82
2020/12/17 03:25:00;;;;;;;9.40;2.58;;;6.60;99.90;;;;;;5073733;28;20034;-80
2020/12/17 03:27:26;;;;;;;14.68;3.88;;;6.60;99.90;;;;;;5092514;28;20032;-82
2020/12/17 03:29:52;;;;;;;13.85;2.80;;;6.60;99.90;;;;;;5090289;28;20033;-80
2020/12/17 03:32:18;;;;;;;15.07;3.15;;;6.60;99.90;;;;;;5092273;28;20023;-80
2020/12/17 03:34:44;;;;;;;10.13;2.72;;;6.60;99.90;;;;;;5092130;28;20024;-83
2020/12/17 03:37:10;;;;;;;5.40;2.75;;;6.60;99.90;;;;;;5091665;28;20076;-80
2020/12/17 03:39:36;;;;;;;11.13;2.97;;;6.60;99.90;;;;;;5090161;28;20032;-82
2020/12/17 03:42:02;;;;;;;15.13;3.20;;;6.60;99.90;;;;;;5073321;28;20479;-81
2020/12/17 03:44:28;;;;;;;13.05;3.20;;;6.60;99.90;;;;;;5089855;28;20024;-81
2020/12/17 03:46:54;;;;;;;13.68;2.92;;;6.50;99.90;;;;;;5091569;28;20494;-80
2020/12/17 03:49:20;;;;;;;10.10;3.35;;;6.60;99.90;;;;;;5089665;28;20028;-81
2020/12/17 03:51:45;;;;;;;10.10;2.88;;;6.60;99.90;;;;;;5089729;28;20030;-81
2020/12/17 03:54:11;;;;;;;8.02;2.70;;;6.60;99.90;;;;;;5089107;28;20029;-80
2020/12/17 03:56:36;;;;;;;7.80;2.55;;;6.60;99.90;;;;;;5072273;28;20148;-81
2020/12/17 03:59:02;;;;;;;5.90;3.15;;;6.60;99.90;;;;;;5073130;28;20035;-83
2020/12/17 04:01:28;;;;;;;9.15;2.50;;;6.60;99.90;;;;;;5071733;28;20028;-80
2020/12/17 04:03:54;;;;;;;8.95;2.20;;;6.60;99.90;;;;;;5088654;28;20070;-82
2020/12/17 04:06:19;;;;;;;8.90;2.50;;;6.60;99.90;;;;;;5089192;28;20056;-83
2020/12/17 04:08:45;;;;;;;11.07;2.17;;;6.60;99.90;;;;;;5089601;28;20028;-80
2020/12/17 04:11:11;;;;;;;8.25;2.25;;;6.60;99.90;;;;;;5072387;28;20032;-83
2020/12/17 04:13:37;;;;;;;15.07;2.63;;;6.60;99.90;;;;;;5090421;28;20024;-83
2020/12/17 04:16:03;;;;;;;11.82;3.67;;;6.60;99.90;;;;;;5072113;28;20028;-82
2020/12/17 04:18:29;;;;;;;15.02;2.60;;;6.60;99.90;;;;;;5090624;28;20089;-81
2020/12/17 04:20:55;;;;;;;7.68;2.33;;;6.50;99.90;;;;;;5071940;28;20028;-82
2020/12/17 04:23:21;;;;;;;9.20;1.90;;;6.50;99.90;;;;;;5088918;28;20032;-81
2020/12/17 04:25:47;;;;;;;10.27;2.42;;;6.50;99.90;;;;;;5089065;28;20407;-81
2020/12/17 04:28:12;;;;;;;14.25;2.72;;;6.50;99.90;;;;;;5088500;28;20099;-81
2020/12/17 04:30:38;;;;;;;10.65;2.40;;;6.50;99.90;;;;;;5071502;28;20036;-81
2020/12/17 04:33:04;;;;;;;8.18;1.95;;;6.50;99.90;;;;;;5089852;28;20012;-82
2020/12/17 04:35:30;;;;;;;16.15;2.90;;;6.40;99.90;;;;;;5088576;28;20371;-81
2020/12/17 04:37:56;;;;;;;11.48;2.45;;;6.40;99.90;;;;;;5090179;28;20453;-81
2020/12/17 04:40:22;;;;;;;11.05;1.67;;;6.40;99.90;;;;;;5088465;28;20091;-82
2020/12/17 04:42:49;;;;;;;15.55;2.10;;;6.40;99.90;;;;;;5071537;28;20127;-80
2020/12/17 04:45:15;;;;;;;9.10;2.00;;;6.40;99.90;;;;;;5088362;28;20047;-81
2020/12/17 04:47:46;;;;;;;10.85;2.05;;;6.40;99.90;;;;;;5071803;28;20027;-82
2020/12/17 04:50:15;;;;;;;11.40;1.88;;;6.40;99.90;;;;;;5088733;28;20028;-81
2020/12/17 04:52:42;;;;;;;13.07;2.20;;;6.40;99.90;;;;;;5089271;28;20020;-81
2020/12/17 04:55:10;;;;;;;7.80;1.77;;;6.40;99.90;;;;;;5089648;28;20035;-79
2020/12/17 04:57:43;;;;;;;8.60;1.77;;;6.40;99.90;;;;;;5071147;28;20039;-81
2020/12/17 05:00:09;;;;;;;8.23;2.80;;;6.30;99.90;;;;;;5087720;28;20020;-80
2020/12/17 05:02:36;;;;;;;8.35;1.55;;;6.30;99.90;;;;;;5087659;28;20119;-81
2020/12/17 05:05:03;;;;;;;8.48;2.42;;;6.30;99.90;;;;;;5089894;28;20077;-84
2020/12/17 05:07:28;;;;;;;6.65;1.80;;;6.40;99.90;;;;;;5087946;28;20046;-80
2020/12/17 05:09:54;;;;;;;11.60;2.17;;;6.40;99.90;;;;;;5071600;28;20043;-83
2020/12/17 05:12:20;;;;;;;7.95;1.63;;;6.40;99.90;;;;;;5088897;28;20546;-82
2020/12/17 05:14:47;;;;;;;15.88;2.95;;;6.40;99.90;;;;;;5071616;28;20115;-81
2020/12/17 05:17:13;;;;;;;9.63;1.52;;;6.40;99.90;;;;;;5071843;28;20074;-81
2020/12/17 05:19:42;;;;;;;3.47;1.40;;;6.40;99.90;;;;;;5071105;28;20518;-80
2020/12/17 05:22:13;;;;;;;10.90;1.75;;;6.50;99.90;;;;;;5088176;28;20509;-82
2020/12/17 05:24:43;;;;;;;12.55;3.20;;;6.50;99.90;;;;;;5088011;28;20032;-82
2020/12/17 05:27:09;;;;;;;;;;;6.50;99.90;;;;;;5089761;28;20032;-82
2020/12/17 05:29:37;;;;;;;10.85;1.52;;;6.50;99.90;;;;;;5088028;28;19965;-82
2020/12/17 05:32:03;;;;;;;5.30;1.25;;;6.50;99.90;;;;;;5071207;28;20031;-82
2020/12/17 05:34:29;;;;;;;8.55;1.50;;;6.50;99.90;;;;;;5093142;28;20016;-81
2020/12/17 05:36:54;;;;;;;10.70;2.15;;;6.50;99.90;;;;;;5092586;28;20028;-81
2020/12/17 05:39:22;;;;;;;18.52;2.40;;;6.40;99.90;;;;;;5091314;28;20461;-82
2020/12/17 05:41:53;;;;;;;8.07;1.50;;;6.40;99.90;;;;;;5074156;28;20024;-81
2020/12/17 05:44:26;;;;;;;9.32;1.80;;;6.40;99.90;;;;;;5091519;28;20484;-80
2020/12/17 05:46:53;;;;;;;5.63;1.45;;;6.40;99.90;;;;;;5074739;28;20032;-81
2020/12/17 05:49:23;;;;;;;10.85;1.95;;;6.40;99.90;;;;;;5092108;28;20106;-81
2020/12/17 05:52:07;;;;;;;17.25;2.00;;;6.40;99.90;;;;;;5091383;28;20490;-82
2020/12/17 05:54:33;;;;;;;10.32;1.88;;;6.40;99.90;;;;;;5092752;28;20034;-82
2020/12/17 05:57:09;;;;;;;10.05;2.67;;;6.40;99.90;;;;;;5091932;28;20035;-82
2020/12/17 05:59:35;;;;;;;12.20;1.65;;;6.40;99.90;;;;;;5092888;28;20020;-80
2020/12/17 06:02:22;;;;;;;11.40;1.77;;;6.40;99.90;;;;;;5093263;28;20024;-83
2020/12/17 06:05:11;;;;;;;10.65;3.13;;;6.40;99.90;;;;;;5090883;28;20028;-84
2020/12/17 06:07:49;;;;;;;10.32;1.33;;;6.40;99.90;;;;;;5091931;28;20062;-82
2020/12/17 06:10:25;;;;;;;9.05;1.80;;;6.40;99.90;;;;;;5091362;28;20032;-81
2020/12/17 06:13:00;;;;;;;6.97;1.58;;;6.40;99.90;;;;;;5092779;28;20444;-82
2020/12/17 06:15:28;;;;;;;11.95;2.67;;;6.40;99.90;;;;;;5092473;28;20051;-83
2020/12/17 06:17:54;;;;;;;14.55;2.25;;;6.40;99.90;;;;;;5074275;28;20031;-83
2020/12/17 06:20:22;;;;;;;15.65;1.98;;;6.40;99.90;;;;;;5090336;28;20433;-83
2020/12/17 06:22:57;;;;;;;10.40;2.15;;;6.40;99.90;;;;;;5091275;28;20495;-82
2020/12/17 06:25:24;;;;;;;11.70;2.28;;;6.40;99.90;;;;;;5091012;28;20119;-83
2020/12/17 06:27:52;;;;;;;16.25;2.58;;;6.40;99.90;;;;;;5074086;28;20068;-82
2020/12/17 06:30:38;;;;;;;12.38;1.95;;;6.40;99.90;;;;;;5073492;28;20480;-83
2020/12/17 06:33:05;;;;;;;12.35;5.82;;;6.40;99.90;;;;;;5073649;28;20478;-82
2020/12/17 06:35:41;;;;;;;13.57;1.95;;;6.40;99.90;;;;;;5091125;28;20527;-81
2020/12/17 06:38:09;;;;;;;10.63;1.83;;;6.40;99.90;;;;;;5092323;28;20028;-82
2020/12/17 06:40:35;;;;;;;13.95;2.58;;;6.40;99.90;;;;;;5090533;28;20027;-79
2020/12/17 06:43:01;;;;;;;10.90;2.05;;;6.50;99.90;;;;;;5073714;28;20383;-80
2020/12/17 06:45:33;;;;;;;19.10;2.38;;;6.50;99.90;;;;;;5091636;28;20060;-82
2020/12/17 06:47:59;;;;;;;10.32;2.10;;;6.60;99.90;;;;;;5091488;28;20085;-82
2020/12/17 06:50:30;;;;;;;9.93;1.88;;;6.60;99.90;;;;;;5090086;28;20111;-83
2020/12/17 06:53:06;;;;;;;5.18;1.55;;;6.70;99.90;;;;;;5088666;28;20028;-82
2020/12/17 06:55:42;;;;;;;13.20;2.30;;;6.70;99.90;;;;;;5089303;28;20035;-84
2020/12/17 06:58:16;;;;;;;8.48;1.60;;;6.70;99.90;;;;;;5089965;28;20157;-81
2020/12/17 07:00:42;;;;;;;12.70;2.45;;;6.80;99.90;;;;;;5090245;28;20470;-83
2020/12/17 07:03:08;;;;;;;9.68;2.38;;;6.80;99.90;;;;;;5090715;28;20035;-81
2020/12/17 07:05:35;;;;;;;8.48;2.30;;;6.80;99.90;;;;;;5073433;28;20035;-82
2020/12/17 07:08:02;;;;;;;15.50;2.13;;;6.80;99.90;;;;;;5073177;28;20034;-82
2020/12/17 07:10:30;;;;;;;9.77;1.98;;;6.80;99.90;;;;;;5089203;28;20548;-84
2020/12/17 07:12:56;;;;;;;9.10;1.75;;;6.80;99.90;;;;;;5089601;28;20028;-84
2020/12/17 07:15:35;;;;;;;12.95;2.15;;;6.70;99.90;;;;;;5072739;28;20028;-82
2020/12/17 07:18:24;;;;;;;15.80;1.55;;;6.70;99.90;;;;;;5072539;28;20387;-83
2020/12/17 07:21:05;;;;;;;13.70;1.77;;;6.70;99.90;;;;;;5089242;28;20440;-81
2020/12/17 07:23:36;;;;;;;9.20;1.67;;;6.60;99.90;;;;;;5072430;28;20029;-81
2020/12/17 07:26:14;;;;;;;7.88;2.10;;;6.60;99.90;;;;;;5088718;28;20123;-82
2020/12/17 07:28:41;;;;;;;9.68;1.98;;;6.60;99.90;;;;;;5072145;28;20057;-82
2020/12/17 07:31:22;;;;;;;7.32;1.52;;;6.60;99.90;;;;;;5090513;28;20116;-82
2020/12/17 07:33:47;;;;;;;14.27;2.20;;;6.70;99.90;;;;;;5089227;28;20473;-82
2020/12/17 07:36:13;;;;;;;8.68;1.35;;;6.80;99.90;;;;;;5071481;28;20094;-71
2020/12/17 07:38:40;;;;;;;8.10;1.45;;;6.80;99.90;;;;;;5088657;28;20444;-79
2020/12/17 07:41:06;;;;;;;6.85;1.75;;;6.90;99.90;;;;;;5089823;28;20066;-79
2020/12/17 07:43:40;;;;;;;6.68;1.65;;;7.00;99.90;;;;;;5071617;28;20028;-83
2020/12/17 07:46:07;;;;;;;9.38;2.13;;;7.10;99.90;;;;;;5088572;28;20067;-82
2020/12/17 07:48:44;;;;;;;11.88;1.77;;;7.20;99.90;;;;;;5088476;28;20173;-81
2020/12/17 07:51:13;;;;;;;10.23;1.60;;;7.30;99.90;;;;;;5088074;28;20020;-82
2020/12/17 07:53:40;;;;;;;12.43;1.50;;;7.40;99.90;;;;;;5088281;28;20111;-81
2020/12/17 07:56:07;;;;;;;11.48;2.58;;;7.50;99.90;;;;;;5087819;28;20024;-82
2020/12/17 07:58:34;;;;;;;14.38;2.55;;;7.50;99.90;;;;;;5088199;28;20035;-81
2020/12/17 08:01:00;;;;;;;7.72;2.20;;;7.60;99.90;;;;;;5071552;28;20043;-83
2020/12/17 08:03:27;;;;;;;20.50;3.17;;;7.60;99.90;;;;;;5089300;28;20111;-82
2020/12/17 08:06:04;;;;;;;10.45;2.15;;;7.70;99.90;;;;;;5071563;28;20081;-83
2020/12/17 08:08:30;;;;;;;12.98;1.98;;;7.70;99.90;;;;;;5088276;28;20055;-84
2020/12/17 08:10:56;;;;;;;14.13;1.38;;;7.80;99.90;;;;;;5087996;28;20455;-82
2020/12/17 08:13:23;;;;;;;9.85;2.70;;;7.80;99.90;;;;;;5088399;28;20128;-82
2020/12/17 08:15:53;;;;;;;8.82;1.38;;;7.80;99.90;;;;;;5071023;28;20039;-84
2020/12/17 08:18:23;;;;;;;13.55;2.17;;;7.90;99.90;;;;;;5087751;28;20024;-82
2020/12/17 08:21:03;;;;;;;13.65;1.88;;;7.90;99.90;;;;;;5087768;28;20063;-82
2020/12/17 08:23:29;;;;;;;13.32;2.30;;;7.90;99.90;;;;;;5088163;28;20073;-83
2020/12/17 08:25:56;;;;;;;11.32;1.50;;;7.90;99.90;;;;;;5087667;28;20055;-82
2020/12/17 08:28:22;;;;;;;11.63;1.88;;;8.00;99.90;;;;;;5087999;28;20056;-81
2020/12/17 08:30:48;;;;;;;13.82;1.85;;;8.00;99.90;;;;;;5088266;28;20066;-81
2020/12/17 08:33:13;;;;;;;12.02;1.42;;;8.00;99.90;;;;;;5089488;28;20032;-82
2020/12/17 08:35:39;;;;;;;14.75;2.70;;;8.00;99.90;;;;;;5088092;28;20027;-82
2020/12/17 08:38:10;;;;;;;10.98;1.83;;;8.00;99.90;;;;;;5087602;28;20504;-81
2020/12/17 08:40:41;;;;;;;13.10;2.40;;;8.00;99.90;;;;;;5087007;28;20453;-79
2020/12/17 08:43:11;;;;;;;11.68;2.38;;;8.00;99.90;;;;;;5087402;28;20118;-81
2020/12/17 08:45:40;;;;;;;9.43;1.58;;;8.00;99.90;;;;;;5086652;28;20380;-80
2020/12/17 08:48:15;;;;;;;9.23;1.77;;;8.00;99.90;;;;;;5087079;28;20104;-80
2020/12/17 08:50:43;;;;;;;15.07;2.28;;;8.00;99.90;;;;;;5086465;28;20032;-82
2020/12/17 08:53:20;;;;;;;10.93;1.85;;;8.00;99.90;;;;;;5086352;28;20027;-83
2020/12/17 08:56:10;;;;;;;15.68;2.22;;;7.80;99.90;;;;;;5086270;28;20020;-80
2020/12/17 08:58:52;;;;;;;11.82;1.67;;;7.80;99.90;;;;;;5085989;28;20016;-81
2020/12/17 09:01:41;;;;;;;25.55;1.70;;;7.80;99.90;;;;;;5087346;28;20044;-80
2020/12/17 09:04:09;;;;;;;6.40;1.40;;;7.80;99.90;;;;;;5085279;28;20028;-81
2020/12/17 09:06:37;;;;;;;9.20;1.67;;;7.80;99.90;;;;;;5085941;28;20089;-81
2020/12/17 09:09:15;;;;;;;20.77;7.60;;;7.90;99.90;;;;;;5073174;28;20101;-81
2020/12/17 09:11:46;;;;;;;9.40;1.77;;;8.10;99.90;;;;;;5090096;28;20565;-80
2020/12/17 09:14:19;;;;;;;9.57;1.92;;;8.30;99.90;;;;;;5090592;28;20115;-82
2020/12/17 09:16:46;;;;;;;11.55;1.90;;;8.50;99.90;;;;;;5074146;28;20024;-83
2020/12/17 09:19:12;;;;;;;12.30;2.25;;;8.60;99.90;;;;;;5090651;28;20063;-83
2020/12/17 09:21:54;;;;;;;12.02;2.22;;;8.70;99.90;;;;;;5091421;28;20462;-81
2020/12/17 09:24:37;;;;;;;15.35;2.50;;;8.70;99.90;;;;;;5077018;28;20077;-81
2020/12/17 09:27:20;;;;;;;9.43;2.33;;;8.80;99.90;;;;;;5091206;28;20111;-80
2020/12/17 09:30:12;;;;;;;10.05;1.80;;;8.90;99.90;;;;;;5091102;28;20047;-82
2020/12/17 09:33:00;;;;;;;11.93;1.75;;;8.90;99.60;;;;;;5090105;28;20069;-82
2020/12/17 09:35:36;;;;;;;12.25;2.08;;;8.90;99.30;;;;;;5092097;28;20024;-82
2020/12/17 09:38:04;;;;;;;16.13;2.60;;;8.90;99.60;;;;;;5091335;28;20100;-82
2020/12/17 09:40:31;;;;;;;13.00;1.95;;;8.90;99.20;;;;;;5089481;28;20016;-83
2020/12/17 09:43:10;;;;;;;19.88;2.20;;;9.00;99.40;;;;;;5089527;28;20077;-81
2020/12/17 09:46:16;;;;;;;10.85;1.77;;;9.10;99.80;;;;;;5073500;28;20133;-80
2020/12/17 09:48:42;;;;;;;15.32;2.08;;;9.30;99.70;;;;;;5110088;28;20046;-81
2020/12/17 09:51:08;;;;;;;13.98;2.03;;;9.50;99.60;;;;;;5091395;28;20028;-82
2020/12/17 09:53:43;;;;;;;19.33;2.72;;;9.80;99.80;;;;;;5074954;28;20031;-84
2020/12/17 09:56:13;;;;;;;11.80;2.58;;;9.90;99.50;;;;;;5092390;28;20085;-83
2020/12/17 09:58:45;;;;;;;12.90;2.15;;;10.00;98.90;;;;;;5091409;28;20027;-82
2020/12/17 10:01:12;;;;;;;10.85;1.52;;;10.10;98.80;;;;;;5095697;28;20490;-82
2020/12/17 10:03:39;;;;;;;15.43;2.67;;;10.30;99.50;;;;;;5090782;28;20039;-81
2020/12/17 10:06:05;;;;;;;14.68;2.15;;;10.90;99.90;;;;;;5091013;28;20057;-81
2020/12/17 10:08:32;;;;;;;7.57;2.15;;;11.60;99.80;;;;;;5074049;28;20044;-81
2020/12/17 10:10:59;;;;;;;16.67;2.33;;;12.30;99.50;;;;;;5091537;28;20046;-84
2020/12/17 10:13:25;;;;;;;9.82;1.70;;;12.70;98.40;;;;;;5091028;28;20055;-82
2020/12/17 10:15:50;;;;;;;15.43;2.30;;;12.80;97.20;;;;;;5091661;28;20020;-82
2020/12/17 10:18:16;;;;;;;11.43;1.95;;;12.90;97.10;;;;;;5090724;28;20527;-83
2020/12/17 10:20:42;;;;;;;15.55;2.88;;;12.80;96.50;;;;;;5089210;28;20040;-82
2020/12/17 10:23:08;;;;;;;24.50;3.70;;;12.80;96.60;;;;;;5089444;28;20091;-82
2020/12/17 10:25:33;;;;;;;14.00;2.75;;;12.70;96.50;;;;;;5072672;28;20033;-83
2020/12/17 10:27:59;;;;;;;15.02;2.50;;;12.70;96.40;;;;;;5072577;28;20028;-81
2020/12/17 10:30:25;;;;;;;14.57;2.10;;;12.50;96.10;;;;;;5089265;28;20043;-84
2020/12/17 10:32:51;;;;;;;18.58;2.90;;;12.30;96.10;;;;;;5090780;28;20104;-79
2020/12/17 10:35:17;;;;;;;19.25;3.05;;;12.10;96.00;;;;;;5089236;28;20139;-80
2020/12/17 10:37:43;;;;;;;8.65;2.30;;;11.90;96.20;;;;;;5090611;28;20016;-82
2020/12/17 10:40:13;;;;;;;11.18;1.90;;;11.70;96.50;;;;;;5089325;28;20111;-83
2020/12/17 10:42:42;;;;;;;13.82;2.28;;;11.60;96.70;;;;;;5090570;28;20068;-81
2020/12/17 10:45:09;;;;;;;11.83;2.80;;;11.60;96.80;;;;;;5072932;28;20033;-82
2020/12/17 10:47:36;;;;;;;15.13;2.72;;;11.60;97.50;;;;;;5072078;28;20266;-81
2020/12/17 10:50:04;;;;;;;12.23;2.85;;;12.00;98.50;;;;;;5090152;28;20486;-81
2020/12/17 10:52:30;;;;;;;14.27;2.20;;;12.40;98.10;;;;;;5088825;28;20034;-82
2020/12/17 10:54:55;;;;;;;16.83;3.20;;;12.70;97.40;;;;;;5091045;28;20431;-82
2020/12/17 10:57:24;;;;;;;15.90;2.92;;;12.90;97.00;;;;;;5090963;28;20028;-83
2020/12/17 10:59:50;;;;;;;17.00;2.83;;;12.90;96.70;;;;;;5088266;28;20028;-82
2020/12/17 11:02:16;;;;;;;12.35;2.85;;;13.00;96.80;;;;;;5090740;28;20031;-82
2020/12/17 11:04:42;;;;;;;14.55;2.08;;;13.50;97.90;;;;;;5089559;28;20073;-86
2020/12/17 11:07:08;;;;;;;12.25;2.38;;;14.00;97.50;;;;;;5090594;28;20020;-81
2020/12/17 11:09:33;;;;;;;10.63;1.55;;;14.50;96.60;;;;;;5090220;28;20036;-83
2020/12/17 11:11:59;;;;;;;10.10;1.90;;;14.70;95.80;;;;;;5073655;28;20047;-84
2020/12/17 11:14:25;;;;;;;10.77;1.80;;;14.70;95.10;;;;;;5091225;28;20031;-84
2020/12/17 11:16:52;;;;;;;10.90;2.88;;;14.60;94.40;;;;;;5091072;28;20063;-79
2020/12/17 11:19:19;;;;;;;8.02;1.65;;;14.40;94.50;;;;;;5062653;28;774984;-86
2020/12/17 11:21:44;;;;;;;10.02;2.45;;;14.40;95.10;;;;;;5091708;28;20470;-86
2020/12/17 11:24:10;;;;;;;9.75;1.48;;;14.80;95.60;;;;;;5090578;28;20031;-84
2020/12/17 11:26:44;;;;;;;7.45;1.60;;;15.00;94.90;;;;;;5091179;28;20028;-84
2020/12/17 11:29:10;;;;;;;8.40;1.75;;;14.90;94.00;;;;;;5090610;28;20028;-84
2020/12/17 11:31:36;;;;;;;6.35;1.38;;;14.80;94.00;;;;;;5089463;28;20088;-84
2020/12/17 11:34:02;;;;;;;5.50;0.98;;;14.80;94.40;;;;;;5092252;28;20023;-85
2020/12/17 11:36:28;;;;;;;7.38;1.15;;;14.80;94.10;;;;;;5089833;28;20020;-83
2020/12/17 11:38:54;;;;;;;5.70;1.02;;;14.60;93.60;;;;;;5089235;28;20020;-83
2020/12/17 11:41:20;;;;;;;6.68;1.17;;;14.40;93.60;;;;;;5072165;28;20062;-81
2020/12/17 11:43:46;;;;;;;4.95;1.40;;;14.20;93.70;;;;;;5089626;28;20035;-82
2020/12/17 11:46:11;;;;;;;5.20;1.00;;;13.90;93.90;;;;;;5090485;28;20028;-82
2020/12/17 11:48:37;;;;;;;8.82;1.55;;;13.70;94.10;;;;;;5089292;28;20540;-81
2020/12/17 11:51:03;;;;;;;8.65;1.10;;;13.50;94.30;;;;;;5089019;28;20104;-81
2020/12/17 11:53:28;;;;;;;5.43;1.08;;;13.40;94.60;;;;;;5072159;28;20028;-81
2020/12/17 11:55:54;;;;;;;5.60;1.35;;;13.30;94.70;;;;;;5089878;28;20027;-80
2020/12/17 11:58:20;;;;;;;7.07;1.58;;;13.20;94.80;;;;;;5090324;28;20023;-80
2020/12/17 12:00:46;;;;;;;10.82;2.45;;;13.00;95.00;;;;;;5071762;28;20035;-80
2020/12/17 12:03:12;;;;;;;5.82;1.10;;;12.90;95.20;;;;;;5073202;28;20545;-81
2020/12/17 12:05:38;;;;;;;8.68;1.88;;;13.00;95.50;;;;;;5072919;28;20028;-81
2020/12/17 12:08:03;;;;;;;15.18;2.28;;;13.00;95.80;;;;;;5071888;28;20119;-82
2020/12/17 12:10:30;;;;;;;4.53;1.02;;;13.40;96.80;;;;;;5089153;28;20378;-82
2020/12/17 12:13:05;;;;;;;9.65;2.30;;;14.10;96.80;;;;;;5089208;28;20046;-83
2020/12/17 12:15:32;;;;;;;10.18;1.42;;;14.70;95.80;;;;;;5089144;28;20031;-81
2020/12/17 12:17:58;;;;;;;7.72;1.42;;;15.00;95.20;;;;;;5074164;28;20058;-80
2020/12/17 12:20:24;;;;;;;8.88;1.95;;;15.20;95.00;;;;;;5092091;28;20052;-80
2020/12/17 12:22:49;;;;;;;8.02;1.52;;;15.50;94.60;;;;;;5074079;28;20081;-80
2020/12/17 12:25:15;;;;;;;11.45;1.70;;;15.60;93.80;;;;;;5072601;28;20032;-80
2020/12/17 12:27:41;;;;;;;10.55;1.65;;;15.50;93.20;;;;;;5090112;28;20031;-81
2020/12/17 12:30:06;;;;;;;6.80;1.38;;;15.20;93.00;;;;;;5089659;28;20127;-77
2020/12/17 12:32:32;;;;;;;14.02;2.40;;;15.00;92.90;;;;;;5090161;28;20024;-80
2020/12/17 12:34:58;;;;;;;9.43;2.00;;;14.70;93.00;;;;;;5089418;28;20408;-80
2020/12/17 12:37:23;;;;;;;8.10;1.77;;;14.50;93.30;;;;;;5089202;28;20024;-83
2020/12/17 12:39:49;;;;;;;12.57;2.00;;;14.30;93.40;;;;;;5090573;28;20553;-84
2020/12/17 12:42:15;;;;;;;16.50;2.22;;;14.10;93.70;;;;;;5087962;28;20119;-81
2020/12/17 12:44:40;;;;;;;15.50;2.47;;;14.10;93.80;;;;;;5087623;28;20478;-82
2020/12/17 12:47:06;;;;;;;14.95;2.80;;;14.10;94.00;;;;;;5088626;28;20047;-80
2020/12/17 12:49:32;;;;;;;12.75;2.10;;;14.00;94.20;;;;;;5086726;28;20028;-80
2020/12/17 12:51:57;;;;;;;14.32;2.17;;;14.10;94.10;;;;;;5087501;28;20432;-82